Time;durP1;ratioP1;P1;durP2;ratioP2;P2;SDS_P1;SDS_P2;PMS_P1;PMS_P2;Temp;Humidity;BMP_temperature;BMP_pressure;BME280_temperature;BME280_humidity;BME280_pressure;Samples;Min_cycle;Max_cycle;Signal;HPM_P1;HPM_P2
2021/10/28 00:13:33;;;;;;;13.88;7.82;;;;;;;-139.48;100.00;61774.03;4982068;28;20061;-69
2021/10/28 00:16:25;;;;;;;10.48;7.10;;;;;;;-139.48;100.00;61774.03;4966238;28;20069;-66
2021/10/28 00:19:10;;;;;;;11.25;6.80;;;;;;;-139.48;100.00;61774.03;4994060;28;20089;-69
2021/10/28 00:21:54;;;;;;;12.52;6.80;;;;;;;-139.48;100.00;61774.03;4979121;28;20446;-68
2021/10/28 00:24:39;;;;;;;12.30;6.93;;;;;;;-139.48;100.00;61774.03;4979326;28;20412;-69
2021/10/28 00:27:23;;;;;;;8.95;6.68;;;;;;;-139.48;100.00;61774.03;4993996;28;20104;-69
2021/10/28 00:30:08;;;;;;;8.63;7.10;;;;;;;-139.48;100.00;61774.03;4978969;28;20054;-69
2021/10/28 00:32:52;;;;;;;9.75;6.43;;;;;;;-139.48;100.00;61774.03;4993950;28;20089;-67
2021/10/28 00:35:36;;;;;;;12.57;6.72;;;;;;;-139.48;100.00;61774.03;4993639;28;20134;-69
2021/10/28 00:38:20;;;;;;;10.13;6.18;;;;;;;-139.48;100.00;61774.03;4978799;28;20053;-69
2021/10/28 00:41:04;;;;;;;11.57;6.07;;;;;;;-139.48;100.00;61774.03;4978781;28;20058;-69
2021/10/28 00:43:55;;;;;;;12.00;7.40;;;;;;;-139.48;100.00;61774.03;4993606;28;20057;-68
2021/10/28 00:46:40;;;;;;;8.38;6.55;;;;;;;-139.48;100.00;61774.03;4993796;28;20053;-69
2021/10/28 00:49:24;;;;;;;11.65;7.68;;;;;;;-139.48;100.00;61774.03;4979039;28;20101;-69
2021/10/28 00:52:10;;;;;;;13.63;9.00;;;;;;;-139.48;100.00;61774.03;4979112;28;20050;-69
2021/10/28 00:54:54;;;;;;;13.32;8.10;;;;;;;-139.48;100.00;61774.03;4979308;28;20132;-69
2021/10/28 00:57:38;;;;;;;10.95;7.75;;;;;;;-139.48;100.00;61774.03;4965273;28;20141;-68
2021/10/28 01:00:22;;;;;;;11.43;7.60;;;;;;;-139.48;100.00;61774.03;4978883;28;20065;-69
2021/10/28 01:03:06;;;;;;;11.35;7.72;;;;;;;-139.48;100.00;61774.03;4978689;28;20173;-69
2021/10/28 01:05:50;;;;;;;10.68;7.57;;;;;;;-139.48;100.00;61774.03;4993371;28;20187;-69
2021/10/28 01:08:38;;;;;;;12.20;7.90;;;;;;;-139.48;100.00;61774.03;4965257;28;20096;-69
2021/10/28 01:11:25;;;;;;;12.52;8.48;;;;;;;-139.48;100.00;61774.03;4993539;28;20112;-69
2021/10/28 01:14:09;;;;;;;12.27;7.18;;;;;;;-139.48;100.00;61774.03;4981842;28;20057;-69
2021/10/28 01:16:56;;;;;;;10.75;6.90;;;;;;;-139.48;100.00;61774.03;4982437;28;20177;-69
2021/10/28 01:19:40;;;;;;;10.32;7.40;;;;;;;-139.48;100.00;61774.03;4981988;28;20049;-69
2021/10/28 01:22:24;;;;;;;12.00;7.13;;;;;;;-139.48;100.00;61774.03;4982074;28;20057;-69
2021/10/28 01:25:08;;;;;;;12.70;7.53;;;;;;;-139.48;100.00;61774.03;4982058;28;20054;-69
2021/10/28 01:27:52;;;;;;;12.95;8.93;;;;;;;-139.48;100.00;61774.03;4982151;28;20108;-69
2021/10/28 01:30:36;;;;;;;17.25;9.23;;;;;;;-139.48;100.00;61774.03;4996892;28;20057;-68
2021/10/28 01:33:21;;;;;;;17.90;10.63;;;;;;;-139.48;100.00;61774.03;4996918;28;20045;-69
2021/10/28 01:36:05;;;;;;;16.17;8.63;;;;;;;-139.48;100.00;61774.03;4981843;28;20080;-69
2021/10/28 01:38:50;;;;;;;14.80;8.85;;;;;;;-139.48;100.00;61774.03;4982074;28;20574;-69
2021/10/28 01:41:35;;;;;;;13.25;8.32;;;;;;;-139.48;100.00;61774.03;4968079;28;20415;-69
2021/10/28 01:44:19;;;;;;;14.73;8.77;;;;;;;-139.48;100.00;61774.03;4996699;28;20458;-69
2021/10/28 01:47:03;;;;;;;11.80;8.23;;;;;;;-139.48;100.00;61774.03;4981768;28;20480;-68
2021/10/28 01:49:47;;;;;;;13.25;8.07;;;;;;;-139.48;100.00;61774.03;4982033;28;20133;-69
2021/10/28 01:52:31;;;;;;;12.15;7.78;;;;;;;-139.48;100.00;61774.03;4996290;28;20177;-69
2021/10/28 01:55:15;;;;;;;12.77;8.30;;;;;;;-139.48;100.00;61774.03;4981487;28;20053;-69
2021/10/28 01:57:59;;;;;;;10.27;7.80;;;;;;;-139.48;100.00;61774.03;4996540;28;20096;-69
2021/10/28 02:00:45;;;;;;;13.75;8.23;;;;;;;-139.48;100.00;61774.03;4997627;28;20130;-69
2021/10/28 02:03:29;;;;;;;12.88;8.38;;;;;;;-139.48;100.00;61774.03;4996272;28;20426;-69
2021/10/28 02:06:13;;;;;;;;;;;;;;;-139.48;100.00;61774.03;4982045;28;20138;-69
2021/10/28 02:08:57;;;;;;;14.48;9.32;;;;;;;-139.48;100.00;61774.03;4994988;28;19920;-70
2021/10/28 02:11:41;;;;;;;35.05;10.40;;;;;;;-139.48;100.00;61774.03;4981372;28;20054;-69
2021/10/28 02:14:26;;;;;;;18.17;10.18;;;;;;;-139.48;100.00;61774.03;4995907;28;20045;-69
2021/10/28 02:17:10;;;;;;;17.35;10.70;;;;;;;-139.48;100.00;61774.03;4981354;28;20499;-69
2021/10/28 02:19:54;;;;;;;22.75;10.20;;;;;;;-139.48;100.00;61774.03;4995831;28;20077;-69
2021/10/28 02:22:38;;;;;;;25.20;11.23;;;;;;;-139.48;100.00;61774.03;4981209;28;20482;-69
2021/10/28 02:25:22;;;;;;;38.83;11.60;;;;;;;-139.48;100.00;61774.03;4980153;28;20053;-69
2021/10/28 02:28:06;;;;;;;23.92;10.63;;;;;;;-139.48;100.00;61774.03;4995891;28;20049;-69
2021/10/28 02:30:50;;;;;;;16.80;11.23;;;;;;;-139.48;100.00;61774.03;4995552;28;20049;-69
2021/10/28 02:33:35;;;;;;;20.60;10.07;;;;;;;-139.48;100.00;61774.03;4994757;28;20172;-68
2021/10/28 02:36:18;;;;;;;16.73;9.43;;;;;;;-139.48;100.00;61774.03;4980761;28;20057;-69
2021/10/28 02:39:02;;;;;;;21.83;10.90;;;;;;;-139.48;100.00;61774.03;4995147;28;20053;-70
2021/10/28 02:41:46;;;;;;;41.03;12.70;;;;;;;-139.48;100.00;61774.03;4994410;28;20045;-69
2021/10/28 02:44:30;;;;;;;18.95;11.60;;;;;;;-139.48;100.00;61774.03;4994592;28;20057;-69
2021/10/28 02:47:14;;;;;;;22.90;11.80;;;;;;;-139.48;100.00;61774.03;4994486;28;20514;-69
2021/10/28 02:49:59;;;;;;;21.23;12.30;;;;;;;-139.48;100.00;61774.03;4980752;28;20045;-69
2021/10/28 02:52:42;;;;;;;28.08;13.98;;;;;;;-139.48;100.00;61774.03;4980732;28;20415;-69
2021/10/28 02:55:26;;;;;;;23.85;13.13;;;;;;;-139.48;100.00;61774.03;4980926;28;20049;-69
2021/10/28 02:58:10;;;;;;;18.17;11.38;;;;;;;-139.48;100.00;61774.03;4994282;28;20136;-69
2021/10/28 03:00:55;;;;;;;18.27;11.40;;;;;;;-139.48;100.00;61774.03;4994935;28;20057;-69
2021/10/28 03:03:39;;;;;;;23.95;12.60;;;;;;;-139.48;100.00;61774.03;4995457;28;20092;-69
2021/10/28 03:06:23;;;;;;;23.25;12.40;;;;;;;-139.48;100.00;61774.03;4995184;28;20116;-68
2021/10/28 03:09:09;;;;;;;21.27;12.60;;;;;;;-139.48;100.00;61774.03;4980348;28;20104;-69
2021/10/28 03:11:56;;;;;;;26.20;12.55;;;;;;;-139.48;100.00;61774.03;4980029;28;20133;-69
2021/10/28 03:14:44;;;;;;;19.75;13.70;;;;;;;-139.48;100.00;61774.03;4966980;28;20057;-69
2021/10/28 03:26:29;;;;;;;36.65;12.20;;;;;;;-139.48;100.00;61774.03;4993724;28;20439;-69
2021/10/28 03:29:13;;;;;;;46.10;11.88;;;;;;;-139.48;100.00;61774.03;4980207;28;20130;-69
2021/10/28 03:31:57;;;;;;;25.20;11.75;;;;;;;-139.48;100.00;61774.03;4980157;28;20053;-69
2021/10/28 03:34:42;;;;;;;23.35;12.23;;;;;;;-139.48;100.00;61774.03;4993700;28;20100;-69
2021/10/28 03:37:29;;;;;;;20.67;12.63;;;;;;;-139.48;100.00;61774.03;4966276;28;20510;-69
2021/10/28 03:40:32;;;;;;;19.63;12.88;;;;;;;-139.48;100.00;61774.03;4993367;28;20096;-69
2021/10/28 04:01:30;;;;;;;17.42;12.15;;;;;;;-139.48;100.00;61774.03;4994206;28;20093;-69
2021/10/28 04:19:03;;;;;;;50.17;12.50;;;;;;;-139.48;100.00;61774.03;4993699;28;20468;-69
2021/10/28 04:30:32;;;;;;;22.08;12.43;;;;;;;-139.48;100.00;61774.03;4992944;28;20057;-67
2021/10/28 04:33:16;;;;;;;17.17;11.35;;;;;;;-139.48;100.00;61774.03;4993956;28;20092;-69
2021/10/28 04:36:00;;;;;;;18.75;11.50;;;;;;;-139.48;100.00;61774.03;4993879;28;20570;-69
2021/10/28 04:38:44;;;;;;;20.08;12.38;;;;;;;-139.48;100.00;61774.03;4992909;28;20079;-68
2021/10/28 04:41:28;;;;;;;16.85;11.25;;;;;;;-139.48;100.00;61774.03;4993872;28;20578;-69
2021/10/28 04:44:12;;;;;;;20.77;11.95;;;;;;;-139.48;100.00;61774.03;4992656;28;20096;-69
2021/10/28 04:46:56;;;;;;;21.83;11.90;;;;;;;-139.48;100.00;61774.03;4993802;28;20096;-69
2021/10/28 04:49:40;;;;;;;28.48;12.98;;;;;;;-139.48;100.00;61774.03;4996532;28;20562;-69
2021/10/28 04:52:24;;;;;;;24.27;12.85;;;;;;;-139.48;100.00;61774.03;4996542;28;20048;-69
2021/10/28 04:55:09;;;;;;;23.80;13.65;;;;;;;-139.48;100.00;61774.03;4982838;28;20049;-69
2021/10/28 04:57:53;;;;;;;30.48;13.57;;;;;;;-139.48;100.00;61774.03;4982416;28;20045;-69
2021/10/28 05:00:37;;;;;;;45.38;15.57;;;;;;;-139.48;100.00;61774.03;4982724;28;20084;-69
2021/10/28 05:03:21;;;;;;;77.88;16.75;;;;;;;-139.48;100.00;61774.03;4982372;28;20128;-69
2021/10/28 05:06:04;;;;;;;98.30;19.10;;;;;;;-139.48;100.00;61774.03;4996079;28;20100;-69
2021/10/28 05:08:48;;;;;;;63.80;15.38;;;;;;;-139.48;100.00;61774.03;4982243;28;20049;-69
2021/10/28 05:11:32;;;;;;;69.55;16.05;;;;;;;-139.48;100.00;61774.03;4982582;28;20052;-69
2021/10/28 05:14:16;;;;;;;114.13;18.23;;;;;;;-139.48;100.00;61774.03;4997341;28;20057;-69
2021/10/28 05:17:00;;;;;;;78.25;18.20;;;;;;;-139.48;100.00;61774.03;4997237;28;20096;-69
2021/10/28 05:19:44;;;;;;;82.38;15.93;;;;;;;-139.48;100.00;61774.03;4996777;28;20152;-69
2021/10/28 05:22:28;;;;;;;38.75;14.30;;;;;;;-139.48;100.00;61774.03;4996093;28;20116;-69
2021/10/28 05:25:12;;;;;;;43.50;15.02;;;;;;;-139.48;100.00;61774.03;4995814;28;20110;-69
2021/10/28 05:27:56;;;;;;;33.50;13.07;;;;;;;-139.48;100.00;61774.03;4995773;28;20073;-69
2021/10/28 05:30:40;;;;;;;52.60;15.15;;;;;;;-139.48;100.00;61774.03;4996596;28;20049;-69
2021/10/28 05:33:24;;;;;;;79.53;15.52;;;;;;;-139.48;100.00;61774.03;4982385;28;20052;-68
2021/10/28 05:36:08;;;;;;;37.00;13.00;;;;;;;-139.48;100.00;61774.03;4982076;28;20196;-69
2021/10/28 05:38:53;;;;;;;28.25;11.18;;;;;;;-139.48;100.00;61774.03;4981720;28;20506;-69
2021/10/28 05:41:37;;;;;;;47.00;13.23;;;;;;;-139.48;100.00;61774.03;4996766;28;20510;-69
2021/10/28 05:44:20;;;;;;;22.80;12.70;;;;;;;-139.48;100.00;61774.03;4981914;28;20108;-69
2021/10/28 05:47:04;;;;;;;45.38;12.75;;;;;;;-139.48;100.00;61774.03;4996530;28;20536;-69
2021/10/28 05:49:48;;;;;;;30.20;13.57;;;;;;;-139.48;100.00;61774.03;4995543;28;20096;-69
2021/10/28 05:52:32;;;;;;;39.75;12.80;;;;;;;-139.48;100.00;61774.03;4996292;28;20546;-69
2021/10/28 05:55:16;;;;;;;51.38;12.68;;;;;;;-139.48;100.00;61774.03;4995620;28;20537;-69
2021/10/28 05:58:00;;;;;;;55.00;11.88;;;;;;;-139.48;100.00;61774.03;4981692;28;20104;-69
2021/10/28 06:00:44;;;;;;;41.67;13.38;;;;;;;-139.48;100.00;61774.03;4995101;28;20049;-69
2021/10/28 06:03:28;;;;;;;44.97;13.50;;;;;;;-139.48;100.00;61774.03;4996388;28;20511;-67
2021/10/28 06:06:13;;;;;;;29.60;12.27;;;;;;;-139.48;100.00;61774.03;4981885;28;20088;-69
2021/10/28 06:08:57;;;;;;;46.10;13.38;;;;;;;-139.48;100.00;61774.03;4981212;28;20053;-69
2021/10/28 06:11:41;;;;;;;24.08;11.88;;;;;;;-139.48;100.00;61774.03;4995966;28;20081;-69
2021/10/28 06:14:27;;;;;;;38.85;13.05;;;;;;;-139.48;100.00;61774.03;4995904;28;20113;-69
2021/10/28 06:17:14;;;;;;;40.45;12.90;;;;;;;-139.48;100.00;61774.03;4981522;28;20053;-69
2021/10/28 06:19:59;;;;;;;24.20;11.40;;;;;;;-139.48;100.00;61774.03;4995751;28;20105;-66
2021/10/28 06:22:43;;;;;;;23.25;11.45;;;;;;;-139.48;100.00;61774.03;4994966;28;20053;-69
2021/10/28 06:25:27;;;;;;;23.27;12.85;;;;;;;-139.48;100.00;61774.03;4981269;28;20041;-69
2021/10/28 06:28:11;;;;;;;24.55;11.57;;;;;;;-139.48;100.00;61774.03;4995203;28;20046;-69
2021/10/28 06:30:54;;;;;;;38.67;12.57;;;;;;;-139.48;100.00;61774.03;4967391;28;20096;-69
2021/10/28 06:33:46;;;;;;;51.20;12.18;;;;;;;-139.48;100.00;61774.03;4980861;28;20053;-69
2021/10/28 06:36:35;;;;;;;44.80;11.40;;;;;;;-139.48;100.00;61774.03;4995782;28;20049;-69
2021/10/28 06:39:18;;;;;;;33.40;12.35;;;;;;;-139.48;100.00;61774.03;4994434;28;20472;-70
2021/10/28 06:42:03;;;;;;;61.00;12.55;;;;;;;-139.48;100.00;61774.03;4995721;28;20563;-69
2021/10/28 06:44:47;;;;;;;23.85;11.55;;;;;;;-139.48;100.00;61774.03;4995329;28;20124;-69
2021/10/28 06:47:31;;;;;;;34.13;13.32;;;;;;;-139.48;100.00;61774.03;4995532;28;20098;-68
2021/10/28 06:50:18;;;;;;;55.50;12.73;;;;;;;-139.48;100.00;61774.03;4980293;28;20065;-69
2021/10/28 07:05:05;;;;;;;38.88;14.73;;;;;;;-139.48;100.00;61774.03;4986012;28;20049;-69
2021/10/28 07:07:50;;;;;;;46.45;14.55;;;;;;;-139.48;100.00;61774.03;4980436;28;20049;-69
2021/10/28 07:10:35;;;;;;;73.38;15.65;;;;;;;-139.48;100.00;61774.03;4994478;28;20077;-69
2021/10/28 07:13:24;;;;;;;74.80;14.35;;;;;;;-139.48;100.00;61774.03;4993863;28;20049;-69
2021/10/28 07:16:21;;;;;;;35.53;14.02;;;;;;;-139.48;100.00;61774.03;4980702;28;20053;-69
2021/10/28 07:28:38;;;;;;;30.75;15.13;;;;;;;-139.48;100.00;61774.03;4980542;28;20088;-68
2021/10/28 08:16:59;;;;;;;34.03;14.05;;;;;;;-139.48;100.00;61774.03;4995529;28;20081;-70
2021/10/28 08:19:49;;;;;;;36.42;14.63;;;;;;;-139.48;100.00;61774.03;4993843;28;20096;-70
2021/10/28 08:22:41;;;;;;;61.65;16.25;;;;;;;-139.48;100.00;61774.03;4993067;28;20047;-70
2021/10/28 08:28:49;;;;;;;34.20;16.02;;;;;;;-139.48;100.00;61774.03;4993174;28;20096;-70
2021/10/28 08:31:33;;;;;;;44.08;15.55;;;;;;;-139.48;100.00;61774.03;4992850;28;20048;-70
2021/10/28 08:34:29;;;;;;;27.92;14.93;;;;;;;-139.48;100.00;61774.03;4978934;28;20056;-70
2021/10/28 08:37:15;;;;;;;42.40;15.65;;;;;;;-139.48;100.00;61774.03;4979385;28;20136;-70
2021/10/28 08:39:59;;;;;;;33.97;15.82;;;;;;;-139.48;100.00;61774.03;4979049;28;20181;-70
2021/10/28 08:42:44;;;;;;;43.00;16.35;;;;;;;-139.48;100.00;61774.03;4992606;28;20189;-71
2021/10/28 08:45:34;;;;;;;46.78;15.63;;;;;;;-139.48;100.00;61774.03;4979071;28;20092;-70
2021/10/28 08:48:21;;;;;;;41.40;17.45;;;;;;;-139.48;100.00;61774.03;4979117;28;20415;-70
2021/10/28 08:51:15;;;;;;;30.67;17.55;;;;;;;-139.48;100.00;61774.03;4979065;28;20113;-70
2021/10/28 08:56:54;;;;;;;36.83;18.85;;;;;;;-139.48;100.00;61774.03;4993719;28;20046;-70
2021/10/28 09:24:34;;;;;;;30.35;18.42;;;;;;;-139.48;100.00;61774.03;4992651;28;20514;-70
2021/10/28 09:27:40;;;;;;;31.90;17.95;;;;;;;-139.48;100.00;61774.03;4993391;28;20089;-70
2021/10/28 09:30:40;;;;;;;31.67;17.00;;;;;;;-139.48;100.00;61774.03;4992321;28;20122;-70
2021/10/28 09:34:13;;;;;;;34.30;19.08;;;;;;;-139.48;100.00;61774.03;4993370;28;20442;-70
2021/10/28 09:46:44;;;;;;;37.92;21.38;;;;;;;-139.48;100.00;61774.03;4929123;29;20051;-70
2021/10/28 09:52:27;;;;;;;33.67;19.02;;;;;;;-139.48;100.00;61774.03;4995878;28;20061;-70
2021/10/28 09:58:33;;;;;;;33.38;19.33;;;;;;;-139.48;100.00;61774.03;4983898;28;20149;-70
2021/10/28 10:01:43;;;;;;;26.75;17.25;;;;;;;-139.48;100.00;61774.03;4967399;28;20057;-71
2021/10/28 10:04:30;;;;;;;29.05;17.77;;;;;;;-139.48;100.00;61774.03;4982350;28;20040;-70
2021/10/28 10:07:17;;;;;;;26.85;16.95;;;;;;;-139.48;100.00;61774.03;4982196;28;20100;-70
2021/10/28 10:10:02;;;;;;;26.55;17.30;;;;;;;-139.48;100.00;61774.03;4981542;28;20097;-70
2021/10/28 10:12:47;;;;;;;29.40;18.25;;;;;;;-139.48;100.00;61774.03;4981754;28;20041;-70
2021/10/28 10:15:31;;;;;;;32.10;17.73;;;;;;;-139.48;100.00;61774.03;4981430;28;20141;-70
2021/10/28 10:18:15;;;;;;;28.90;17.60;;;;;;;-139.48;100.00;61774.03;4995031;28;20116;-70
2021/10/28 11:05:46;;;;;;;26.83;18.30;;;;;;;-139.48;100.00;61774.03;4983120;28;20077;-70
2021/10/28 11:27:34;;;;;;;30.30;20.73;;;;;;;-139.48;100.00;61774.03;4982098;28;20049;-70
2021/10/28 11:30:53;;;;;;;30.63;19.30;;;;;;;-139.48;100.00;61774.03;4993746;28;20092;-71
2021/10/28 12:22:53;;;;;;;30.98;20.00;;;;;;;-139.48;100.00;61774.03;4981938;28;20558;-70
2021/10/28 12:25:45;;;;;;;28.65;20.02;;;;;;;-139.48;100.00;61774.03;4983090;28;20398;-69
2021/10/28 12:43:58;;;;;;;31.60;20.52;;;;;;;-139.48;100.00;61774.03;4981760;28;20052;-70
2021/10/28 12:52:53;;;;;;;29.48;20.02;;;;;;;-139.48;100.00;61774.03;4993611;28;20527;-71
2021/10/28 13:38:37;;;;;;;20.58;17.85;;;;;;;-139.48;100.00;61774.03;4996644;28;20084;-68
2021/10/28 13:50:41;;;;;;;22.20;18.77;;;;;;;-139.48;100.00;61774.03;4996591;28;20412;-69
2021/10/28 14:23:37;;;;;;;20.83;17.27;;;;;;;-139.48;100.00;61774.03;4994951;28;20125;-71
2021/10/28 14:38:55;;;;;;;26.60;19.75;;;;;;;-139.48;100.00;61774.03;4994722;28;20065;-69
2021/10/28 15:03:11;;;;;;;20.75;16.52;;;;;;;-139.48;100.00;61774.03;4994262;28;20100;-69
2021/10/28 15:27:45;;;;;;;22.63;16.40;;;;;;;-139.48;100.00;61774.03;4981829;28;20049;-69
2021/10/28 15:30:52;;;;;;;21.35;15.82;;;;;;;-139.48;100.00;61774.03;4979051;28;20045;-70
2021/10/28 15:48:51;;;;;;;19.52;13.65;;;;;;;-139.48;100.00;61774.03;4993854;28;20049;-70
2021/10/28 16:22:14;;;;;;;29.42;18.63;;;;;;;-139.48;100.00;61774.03;4992578;28;20064;-70
2021/10/28 16:24:58;;;;;;;23.80;16.35;;;;;;;-139.48;100.00;61774.03;4992358;28;20074;-70
2021/10/28 16:27:42;;;;;;;24.30;16.90;;;;;;;-139.48;100.00;61774.03;4993469;28;20133;-70
2021/10/28 16:30:26;;;;;;;25.13;16.60;;;;;;;-139.48;100.00;61774.03;4992456;28;20053;-70
2021/10/28 16:33:10;;;;;;;24.83;17.20;;;;;;;-139.48;100.00;61774.03;4993919;28;20097;-69
2021/10/28 16:35:54;;;;;;;25.92;16.60;;;;;;;-139.48;100.00;61774.03;4992384;28;20524;-69
2021/10/28 16:38:38;;;;;;;24.75;16.52;;;;;;;-139.48;100.00;61774.03;4992301;28;20133;-69
2021/10/28 16:41:22;;;;;;;23.88;15.95;;;;;;;-139.48;100.00;61774.03;4992040;28;20164;-69
2021/10/28 16:44:07;;;;;;;23.88;16.52;;;;;;;-139.48;100.00;61774.03;4993442;28;20049;-69
2021/10/28 16:46:52;;;;;;;38.80;22.30;;;;;;;-139.48;100.00;61774.03;4982508;28;20479;-69
2021/10/28 16:49:36;;;;;;;24.38;16.98;;;;;;;-139.48;100.00;61774.03;4982092;28;20049;-69
2021/10/28 16:52:20;;;;;;;26.13;16.50;;;;;;;-139.48;100.00;61774.03;4997199;28;20093;-70
2021/10/28 16:55:04;;;;;;;25.45;16.13;;;;;;;-139.48;100.00;61774.03;4996022;28;20137;-70
2021/10/28 16:57:48;;;;;;;23.23;15.07;;;;;;;-139.48;100.00;61774.03;4995916;28;20096;-69
2021/10/28 17:00:32;;;;;;;22.10;15.55;;;;;;;-139.48;100.00;61774.03;4996038;28;20069;-70
2021/10/28 17:03:17;;;;;;;26.77;16.77;;;;;;;-139.48;100.00;61774.03;4995924;28;20084;-69
2021/10/28 17:06:01;;;;;;;27.38;17.25;;;;;;;-139.48;100.00;61774.03;4982163;28;20049;-69
2021/10/28 17:08:45;;;;;;;29.20;19.83;;;;;;;-139.48;100.00;61774.03;4995594;28;20154;-69
2021/10/28 17:11:30;;;;;;;30.00;18.63;;;;;;;-139.48;100.00;61774.03;4981911;28;20109;-70
2021/10/28 17:14:14;;;;;;;29.05;18.05;;;;;;;-139.48;100.00;61774.03;4996083;28;20184;-69
2021/10/28 17:16:58;;;;;;;25.83;17.35;;;;;;;-139.48;100.00;61774.03;4995731;28;20053;-68
2021/10/28 17:19:45;;;;;;;23.50;15.82;;;;;;;-139.48;100.00;61774.03;4981717;28;20104;-69
2021/10/28 17:22:29;;;;;;;28.65;17.20;;;;;;;-139.48;100.00;61774.03;4981722;28;20392;-69
2021/10/28 17:25:19;;;;;;;24.15;16.58;;;;;;;-139.48;100.00;61774.03;4996566;28;20052;-69
2021/10/28 17:28:03;;;;;;;29.27;19.38;;;;;;;-139.48;100.00;61774.03;4996328;28;20239;-69
2021/10/28 17:30:47;;;;;;;31.08;18.02;;;;;;;-139.48;100.00;61774.03;4995143;28;20096;-69
2021/10/28 17:33:31;;;;;;;26.63;18.17;;;;;;;-139.48;100.00;61774.03;4996397;28;20057;-69
2021/10/28 17:36:15;;;;;;;29.88;19.30;;;;;;;-139.48;100.00;61774.03;4995522;28;20075;-69
2021/10/28 17:38:59;;;;;;;35.40;20.85;;;;;;;-139.48;100.00;61774.03;4995865;28;20090;-69
2021/10/28 17:41:43;;;;;;;52.58;31.67;;;;;;;-139.48;100.00;61774.03;4996228;28;20072;-69
2021/10/28 17:44:51;;;;;;;52.10;33.60;;;;;;;-139.48;100.00;61774.03;4981162;28;20053;-69
2021/10/28 17:47:35;;;;;;;46.13;29.58;;;;;;;-139.48;100.00;61774.03;4984721;28;20045;-69
2021/10/28 17:50:21;;;;;;;43.05;26.77;;;;;;;-139.48;100.00;61774.03;4994799;28;20415;-69
2021/10/28 17:53:05;;;;;;;34.53;21.95;;;;;;;-139.48;100.00;61774.03;4981264;28;20050;-68
2021/10/28 17:55:49;;;;;;;32.53;19.95;;;;;;;-139.48;100.00;61774.03;4995158;28;20053;-69
2021/10/28 17:58:33;;;;;;;29.50;18.92;;;;;;;-139.48;100.00;61774.03;4995689;28;20050;-70
2021/10/28 18:01:20;;;;;;;31.98;18.80;;;;;;;-139.48;100.00;61774.03;4980775;28;20045;-68
2021/10/28 18:04:04;;;;;;;33.15;20.83;;;;;;;-139.48;100.00;61774.03;4994595;28;20509;-69
2021/10/28 18:06:49;;;;;;;33.38;20.70;;;;;;;-139.48;100.00;61774.03;4980978;28;20101;-70
2021/10/28 18:09:35;;;;;;;35.78;22.23;;;;;;;-139.48;100.00;61774.03;4994905;28;20054;-70
2021/10/28 18:12:19;;;;;;;33.58;21.10;;;;;;;-139.48;100.00;61774.03;4994667;28;20468;-69
2021/10/28 18:15:05;;;;;;;32.50;19.65;;;;;;;-139.48;100.00;61774.03;4994586;28;20127;-70
2021/10/28 18:17:49;;;;;;;34.53;20.65;;;;;;;-139.48;100.00;61774.03;4980597;28;20089;-70
2021/10/28 18:20:35;;;;;;;33.45;21.33;;;;;;;-139.48;100.00;61774.03;4980748;28;20126;-70
2021/10/28 18:23:19;;;;;;;29.02;19.23;;;;;;;-139.48;100.00;61774.03;4995466;28;20053;-69
2021/10/28 18:26:03;;;;;;;36.55;22.23;;;;;;;-139.48;100.00;61774.03;4980712;28;20193;-69
2021/10/28 18:28:48;;;;;;;39.35;22.45;;;;;;;-139.48;100.00;61774.03;4980643;28;20169;-70
2021/10/28 18:31:33;;;;;;;31.95;19.55;;;;;;;-139.48;100.00;61774.03;4980856;28;20089;-69
2021/10/28 18:34:16;;;;;;;;;;;;;;;-139.48;100.00;61774.03;4980918;28;20057;-70
2021/10/28 18:37:00;;;;;;;35.65;21.35;;;;;;;-139.48;100.00;61774.03;4994188;28;20352;-70
2021/10/28 18:39:44;;;;;;;37.72;19.40;;;;;;;-139.48;100.00;61774.03;4993730;28;20474;-70
2021/10/28 18:42:29;;;;;;;33.17;19.48;;;;;;;-139.48;100.00;61774.03;4995093;28;20498;-70
2021/10/28 18:45:13;;;;;;;30.63;20.33;;;;;;;-139.48;100.00;61774.03;4966524;28;20057;-69
2021/10/28 18:47:57;;;;;;;34.67;21.38;;;;;;;-139.48;100.00;61774.03;4980272;28;20152;-70
2021/10/28 18:50:42;;;;;;;32.50;20.52;;;;;;;-139.48;100.00;61774.03;4994940;28;20125;-69
2021/10/28 18:53:26;;;;;;;29.98;19.90;;;;;;;-139.48;100.00;61774.03;4966485;28;20100;-70
2021/10/28 18:56:10;;;;;;;34.38;19.58;;;;;;;-139.48;100.00;61774.03;4980166;28;20053;-70
2021/10/28 18:58:54;;;;;;;32.50;19.75;;;;;;;-139.48;100.00;61774.03;4994654;28;20053;-70
2021/10/28 19:01:38;;;;;;;32.33;20.55;;;;;;;-139.48;100.00;61774.03;4979918;28;20111;-70
2021/10/28 19:04:22;;;;;;;;;;;;;;;-139.48;100.00;61774.03;4995009;28;20077;-70
2021/10/28 19:07:06;;;;;;;40.17;21.85;;;;;;;-139.48;100.00;61774.03;4980130;28;19920;-70
2021/10/28 19:09:50;;;;;;;35.08;22.27;;;;;;;-139.48;100.00;61774.03;4994191;28;20052;-70
2021/10/28 19:12:34;;;;;;;43.72;24.80;;;;;;;-139.48;100.00;61774.03;4993902;28;20514;-70
2021/10/28 19:15:18;;;;;;;38.88;24.40;;;;;;;-139.48;100.00;61774.03;4980578;28;20049;-68
2021/10/28 19:18:02;;;;;;;37.55;21.70;;;;;;;-139.48;100.00;61774.03;4993965;28;20494;-70
2021/10/28 19:20:46;;;;;;;36.38;21.55;;;;;;;-139.48;100.00;61774.03;4993642;28;20522;-70
2021/10/28 19:23:30;;;;;;;44.35;25.80;;;;;;;-139.48;100.00;61774.03;4980196;28;20157;-70
2021/10/28 19:26:14;;;;;;;40.78;24.75;;;;;;;-139.48;100.00;61774.03;4993545;28;20498;-69
2021/10/28 19:28:59;;;;;;;40.25;24.15;;;;;;;-139.48;100.00;61774.03;4980196;28;20048;-70
2021/10/28 19:31:56;;;;;;;38.40;24.15;;;;;;;-139.48;100.00;61774.03;4993553;28;20106;-69
2021/10/28 19:34:41;;;;;;;39.90;22.80;;;;;;;-139.48;100.00;61774.03;4994389;28;20045;-70
2021/10/28 19:46:14;;;;;;;62.72;32.95;;;;;;;-139.48;100.00;61774.03;4993656;28;20502;-70
2021/10/28 19:48:58;;;;;;;49.03;27.35;;;;;;;-139.48;100.00;61774.03;4994338;28;20115;-69
2021/10/28 19:51:43;;;;;;;53.88;30.73;;;;;;;-139.48;100.00;61774.03;4979676;28;20129;-69
2021/10/28 19:54:27;;;;;;;65.50;30.35;;;;;;;-139.48;100.00;61774.03;4994334;28;20081;-70
2021/10/28 19:57:33;;;;;;;58.03;29.52;;;;;;;-139.48;100.00;61774.03;4993255;28;20108;-70
2021/10/28 20:06:12;;;;;;;60.28;32.63;;;;;;;-139.48;100.00;61774.03;4994159;28;20049;-70
2021/10/28 20:21:13;;;;;;;58.60;30.45;;;;;;;-139.48;100.00;61774.03;4993755;28;20057;-67
2021/10/28 20:23:58;;;;;;;63.45;30.05;;;;;;;-139.48;100.00;61774.03;4995204;28;20519;-69
2021/10/28 20:26:42;;;;;;;45.92;25.55;;;;;;;-139.48;100.00;61774.03;4979318;28;20100;-70
2021/10/28 20:29:26;;;;;;;48.42;28.13;;;;;;;-139.48;100.00;61774.03;4992806;28;20157;-69
2021/10/28 20:32:09;;;;;;;69.90;34.17;;;;;;;-139.48;100.00;61774.03;4992885;28;20053;-69
2021/10/28 20:37:47;;;;;;;95.25;40.22;;;;;;;-139.48;100.00;61774.03;4993201;28;20045;-70
2021/10/28 20:40:31;;;;;;;81.93;40.13;;;;;;;-139.48;100.00;61774.03;4993507;28;20045;-70
2021/10/28 20:43:15;;;;;;;85.00;38.42;;;;;;;-139.48;100.00;61774.03;4979033;28;20104;-70
2021/10/28 20:45:59;;;;;;;78.85;37.67;;;;;;;-139.48;100.00;61774.03;4979077;28;20120;-70
2021/10/28 20:48:43;;;;;;;75.00;36.92;;;;;;;-139.48;100.00;61774.03;4992847;28;20514;-70
2021/10/28 20:51:27;;;;;;;83.65;34.08;;;;;;;-139.48;100.00;61774.03;4978764;28;20060;-69
2021/10/28 20:54:11;;;;;;;;;;;;;;;-139.48;100.00;61774.03;4993935;28;20084;-69
2021/10/28 20:56:59;;;;;;;76.83;33.93;;;;;;;-139.48;100.00;61774.03;4992773;28;19941;-70
2021/10/28 20:59:43;;;;;;;73.40;32.17;;;;;;;-139.48;100.00;61774.03;4992625;28;20307;-70
2021/10/28 21:02:27;;;;;;;66.30;33.38;;;;;;;-139.48;100.00;61774.03;4992760;28;20514;-70
2021/10/28 21:05:15;;;;;;;69.32;32.92;;;;;;;-139.48;100.00;61774.03;4993736;28;20085;-70